• Join FlightAware (Why Join?)
  • Login
  • US Flag 
04:46AM EDT


 

Airport Tracker/Info


-or-


 

Live Flight TrackerFlight Track Log ✈ AWE373 ✈ 08-Jul-2013 ✈ KCLT - KDFW

Flight Track Log - Related Links

Times and Time Zones

All times are in EDT time to prevent confusion due to time zone crossing. See the AWE373 flight status page for this flight to view local times or setup timezone preferences in your user account.

Time Position Orientation Groundspeed Altitude Reporting Facility
EDT Latitude Longitude Course Direction KTS MPH feet Rate Location/Type
10:28PM 35.1370 -80.9540 195° South 232 267 2,700  Level FlightAware
10:28PM 35.1090 -80.9640 196° South 246 283 3,600 1,680 Climbing FlightAware
10:28PM 35.0960 -80.9790 223° Southwest 261 300 3,900 1,740 Climbing FlightAware
10:29PM 35.0910 -81.0020 255° West 268 308 4,500 2,460 Climbing FlightAware
10:29PM 35.0960 -81.0500 277° West 274 315 5,900 2,640 Climbing FlightAware
10:30PM 35.1020 -81.0950 279° West 278 320 7,200 2,580 Climbing FlightAware
10:30PM 35.1070 -81.1400 278° West 280 322 8,400 2,460 Climbing FlightAware
10:31PM 35.1120 -81.1810 278° West 283 326 9,500 1,920 Climbing FlightAware
10:31PM 35.1190 -81.2420 278° West 314 361 10,400 1,920 Climbing FlightAware
10:32PM 35.1280 -81.3180 278° West 324 373 12,000 2,040 Climbing FlightAware
10:33PM 35.1360 -81.3910 278° West 336 387 13,200 1,860 Climbing FlightAware
10:33PM 35.1460 -81.4720 279° West 346 398 14,600 1,980 Climbing FlightAware
10:34PM 35.1450 -81.5590 269° West 353 406 16,100 1,620 Climbing FlightAware
10:35PM 35.1380 -81.6500 265° West 377 434 17,000 1,320 Climbing FlightAware
10:36PM 35.1310 -81.7410 265° West 389 448 18,000 1,500 Climbing FlightAware
10:36PM 35.1250 -81.8090 264° West 393 452 18,900 1,320 Climbing FlightAware
10:37PM 35.1180 -81.9030 265° West 398 458 19,700 1,380 Climbing FlightAware
10:37PM 35.1100 -81.9980 264° West 400 460 20,900 1,560 Climbing FlightAware
10:38PM 35.1085 -82.0227 266° West 402 463 21,100 1,260 Climbing FlightAware ADS-B
10:38PM 35.1020 -82.1031 264° West 406 467 21,900 1,320 Climbing FlightAware ADS-B
10:39PM 35.0961 -82.1750 264° West 412 474 22,600 1,140 Climbing FlightAware ADS-B
10:39PM 35.0912 -82.2454 265° West 414 476 23,100 960 Climbing FlightAware ADS-B
10:40PM 35.0948 -82.2870 276° West 414 476 23,400 960 Climbing FlightAware ADS-B
10:40PM 35.1114 -82.3544 287° West 417 480 23,900 900 Climbing FlightAware ADS-B
10:40PM 35.1165 -82.3755 286° West 419 482 24,000 840 Climbing FlightAware ADS-B
10:40PM 35.1208 -82.4012 282° West 423 487 24,200 780 Climbing FlightAware ADS-B
10:41PM 35.1227 -82.4271 275° West 427 491 24,300 840 Climbing FlightAware ADS-B
10:41PM 35.1226 -82.5009 270° West 433 498 24,800 900 Climbing FlightAware ADS-B
10:42PM 35.1221 -82.5752 270° West 439 505 25,200 780 Climbing FlightAware ADS-B
10:42PM 35.1216 -82.6612 270° West 440 506 25,700 780 Climbing FlightAware ADS-B
10:43PM 35.1209 -82.7455 269° West 451 519 26,100 720 Climbing FlightAware ADS-B
10:43PM 35.1203 -82.8232 269° West 455 524 26,500 720 Climbing FlightAware ADS-B
10:44PM 35.1196 -82.9035 269° West 458 527 26,900 720 Climbing FlightAware ADS-B
10:44PM 35.1189 -82.9818 269° West 461 531 27,300 780 Climbing FlightAware ADS-B
10:45PM 35.1180 -83.0607 269° West 463 533 27,700 780 Climbing FlightAware ADS-B
10:45PM 35.1172 -83.1394 269° West 465 535 28,100 780 Climbing FlightAware ADS-B
10:46PM 35.1160 -83.2393 269° West 468 539 28,600 780 Climbing FlightAware ADS-B
10:46PM 35.1151 -83.3208 269° West 471 542 29,000 660 Climbing FlightAware ADS-B
10:47PM 35.1141 -83.4014 269° West 474 545 29,300 660 Climbing FlightAware ADS-B
10:47PM 35.1129 -83.4834 269° West 474 545 29,700 660 Climbing FlightAware ADS-B
10:48PM 35.1117 -83.5665 269° West 475 547 30,000 240 Climbing FlightAware ADS-B
10:48PM 35.1104 -83.6472 269° West 477 549 30,000 180 Level FlightAware ADS-B
10:49PM 35.1090 -83.7305 269° West 479 551 30,200 660 Climbing FlightAware ADS-B
10:49PM 35.1077 -83.8120 269° West 477 549 30,700 960 Climbing FlightAware ADS-B
10:50PM 35.1064 -83.8932 269° West 475 547 31,200 960 Climbing FlightAware ADS-B
10:50PM 35.1048 -83.9749 269° West 474 545 31,700 960 Climbing FlightAware ADS-B
10:51PM 35.1034 -84.0563 269° West 473 544 32,200 900 Climbing FlightAware ADS-B
10:51PM 35.1017 -84.1445 269° West 470 541 32,700 900 Climbing FlightAware ADS-B
10:52PM 35.1001 -84.2250 269° West 467 537 33,200 960 Climbing FlightAware ADS-B
10:53PM 35.0984 -84.3052 269° West 464 534 33,700 780 Climbing FlightAware ADS-B
10:53PM 35.0967 -84.3839 269° West 465 535 34,000 240 Climbing FlightAware ADS-B
10:54PM 35.0949 -84.4638 268° West 474 545 34,000  Level FlightAware ADS-B
10:54PM 35.0932 -84.5454 269° West 480 552 34,000  Level FlightAware ADS-B
10:55PM 35.0912 -84.6277 268° West 479 551 34,000  Level FlightAware ADS-B
10:55PM 35.0891 -84.7083 268° West 475 547 34,000  Level FlightAware ADS-B
10:56PM 35.0870 -84.7905 268° West 477 549 34,000  Level FlightAware ADS-B
10:56PM 35.0850 -84.8728 268° West 480 552 34,000  Level FlightAware ADS-B
10:57PM 35.0823 -84.9778 268° West 481 554 34,000  Level FlightAware ADS-B
10:57PM 35.0800 -85.0621 268° West 481 554 34,000  Level FlightAware ADS-B
10:58PM 35.0778 -85.1433 268° West 477 549 34,000  Level FlightAware ADS-B
10:58PM 35.0755 -85.2255 268° West 477 549 34,000  Level FlightAware ADS-B
10:59PM 35.0728 -85.3172 268° West 478 550 34,000  Level FlightAware ADS-B
10:59PM 35.0704 -85.3984 268° West 480 552 34,000  Level FlightAware ADS-B
11:00PM 35.0680 -85.4800 268° West 480 552 34,000  Level FlightAware ADS-B
11:00PM 35.0653 -85.5634 268° West 480 552 34,000  Level FlightAware ADS-B
11:01PM 35.0628 -85.6456 268° West 480 552 34,000  Level FlightAware ADS-B
11:01PM 35.0602 -85.7274 268° West 480 552 34,000  Level FlightAware ADS-B
11:02PM 35.0573 -85.8129 268° West 481 554 34,000  Level FlightAware ADS-B
11:02PM 35.0546 -85.8943 268° West 480 552 34,000  Level FlightAware ADS-B
11:03PM 35.0517 -85.9782 268° West 479 551 34,000  Level FlightAware ADS-B
11:03PM 35.0488 -86.0604 268° West 477 549 34,000  Level FlightAware ADS-B
11:04PM 35.0458 -86.1431 267° West 476 548 34,000  Level FlightAware ADS-B
11:04PM 35.0426 -86.2311 267° West 476 548 34,000  Level FlightAware ADS-B
11:05PM 35.0396 -86.3134 267° West 476 548 34,000  Level FlightAware ADS-B
11:05PM 35.0365 -86.3969 267° West 479 551 34,000  Level FlightAware ADS-B
11:06PM 35.0333 -86.4824 267° West 479 551 34,000  Level FlightAware ADS-B
11:07PM 35.0280 -86.6060 267° West 479 551 34,000  Level FlightAware
11:07PM 35.0240 -86.7210 268° West 478 550 34,000  Level FlightAware
11:08PM 35.0200 -86.8150 267° West 478 550 34,000  Level FlightAware
11:08PM 35.0190 -86.8370 267° West 479 551 34,000  Level FlightAware ADS-B
11:09PM 35.0153 -86.9254 267° West 480 552 34,000  Level FlightAware ADS-B
11:09PM 35.0118 -87.0070 267° West 482 555 34,000  Level FlightAware ADS-B
11:10PM 35.0079 -87.0951 267° West 482 555 34,000  Level FlightAware ADS-B
11:11PM 35.0000 -87.2680 267° West 482 555 34,000  Level FlightAware
11:12PM 34.9950 -87.3840 267° West 482 555 34,000  Level FlightAware
11:12PM 34.9877 -87.5352 267° West 483 556 34,000  Level FlightAware ADS-B
11:13PM 34.9840 -87.6050 266° West 482 555 34,000  Level FlightAware
11:14PM 34.9779 -87.7401 267° West 484 557 34,000  Level FlightAware ADS-B
11:14PM 34.9732 -87.8332 267° West 484 557 34,000  Level FlightAware ADS-B
11:15PM 34.9691 -87.9153 267° West 485 558 34,000  Level FlightAware ADS-B
11:15PM 34.9639 -87.9956 267° West 480 552 34,000  Level Memphis Center
11:16PM 34.9544 -88.1578 266° West 480 552 34,000  Level Memphis Center
11:17PM 34.9469 -88.3253 267° West 494 568 34,000  Level Memphis Center
11:18PM 34.9389 -88.4928 267° West 500 575 34,000  Level Memphis Center
11:19PM 34.9308 -88.6525 267° West 492 566 34,000  Level Memphis Center
11:20PM 34.9206 -88.8122 266° West 484 557 34,000  Level Memphis Center
11:21PM 34.9100 -88.9794 266° West 484 557 34,000  Level Memphis Center
11:22PM 34.9011 -89.1239 266° West 489 563 34,000  Level Memphis Center
11:23PM 34.8900 -89.2911 265° West 489 563 34,000  Level Memphis Center
11:24PM 34.8808 -89.4558 266° West 489 563 34,000  Level Memphis Center
11:25PM 34.8717 -89.6181 266° West 489 563 34,000  Level Memphis Center
11:26PM 34.8536 -89.7825 262° West 494 568 34,000  Level Memphis Center
11:27PM 34.8481 -89.9800 268° West 517 595 34,000  Level Memphis Center
11:28PM 34.8361 -90.1419 265° West 507 583 34,000  Level Memphis Center
11:29PM 34.8236 -90.3092 265° West 496 571 34,000  Level Memphis Center
11:30PM 34.8153 -90.4558 266° West 496 571 34,000  Level Memphis Center
11:31PM 34.8025 -90.6175 265° West 490 564 34,000  Level Memphis Center
11:32PM 34.7897 -90.7794 265° West 485 558 34,000  Level Memphis Center
11:33PM 34.7786 -90.9411 265° West 480 552 34,000  Level Memphis Center
11:34PM 34.7653 -91.1081 264° West 485 558 34,000  Level Memphis Center
11:35PM 34.7517 -91.2694 264° West 484 557 34,000  Level Memphis Center
11:36PM 34.7400 -91.4311 265° West 484 557 34,000  Level Memphis Center
11:37PM 34.7258 -91.6081 264° West 479 551 34,000  Level Memphis Center
11:38PM 34.7117 -91.7492 263° West 479 551 34,000  Level Memphis Center
11:39PM 34.7014 -91.9081 266° West 473 544 34,000  Level Memphis Center
11:44PM 34.5370 -92.7130 266° West 476 548 34,000  Level FlightAware
11:45PM 34.5030 -92.8410 252° West 476 548 34,000  Level FlightAware
11:46PM 34.4750 -92.9440 252° West 476 548 34,000  Level FlightAware
11:47PM 34.4540 -93.0240 252° West 476 548 34,000  Level FlightAware
11:47PM 34.4330 -93.1020 252° West 476 548 34,000  Level FlightAware
11:48PM 34.3980 -93.2340 252° West 476 548 34,000  Level FlightAware
11:49PM 34.3760 -93.3130 251° West 476 548 34,000  Level FlightAware
11:50PM 34.3050 -93.5690 252° West 482 555 34,000  Level FlightAware
11:51PM 34.2730 -93.6860 252° West 482 555 34,000  Level FlightAware
11:52PM 34.2430 -93.7900 251° West 482 555 34,000  Level FlightAware
11:52PM 34.2090 -93.9180 252° West 482 555 34,000  Level FlightAware
11:53PM 34.1810 -94.0200 252° West 484 557 34,000  Level FlightAware
11:54PM 34.1500 -94.1290 251° West 484 557 34,000  Level FlightAware
11:55PM 34.1100 -94.2690 251° West 485 558 34,000  Level FlightAware
11:55PM 34.0790 -94.3820 252° West 486 559 34,000  Level FlightAware
11:56PM 34.0530 -94.4730 251° West 487 560 34,000  Level FlightAware
11:57PM 34.0290 -94.5580 251° West 487 560 34,000  Level FlightAware
11:57PM 34.0060 -94.6360 250° West 487 560 34,000 -1,140 Level FlightAware
11:58PM 33.9510 -94.8290 251° West 490 564 32,200 -1,380 Descending FlightAware
11:59PM 33.9240 -94.9240 251° West 493 567 31,700 -1,020 Descending FlightAware
12:00AM 33.8920 -95.0340 251° West 498 573 30,900 -1,140 Descending FlightAware
12:00AM 33.8610 -95.1420 251° West 499 574 30,200 -1,620 Descending FlightAware
12:01AM 33.8290 -95.2500 250° West 498 573 28,700 -2,340 Descending FlightAware
12:02AM 33.7970 -95.3620 251° West 494 568 27,000 -2,100 Descending FlightAware
12:02AM 33.7660 -95.4560 248° West 494 568 25,900 -1,860 Descending FlightAware
12:03AM 33.7130 -95.5700 241° Southwest 499 574 24,400 -2,220 Descending FlightAware
12:04AM 33.6660 -95.6670 240° Southwest 489 563 22,700 -2,460 Descending FlightAware
12:04AM 33.6170 -95.7710 241° Southwest 477 549 21,000 -2,340 Descending FlightAware
12:05AM 33.5740 -95.8610 240° Southwest 464 534 19,500 -2,340 Descending FlightAware
12:06AM 33.5280 -95.9560 240° Southwest 454 522 17,800 -2,400 Descending FlightAware
12:06AM 33.4870 -96.0430 241° Southwest 445 512 16,200 -2,400 Descending FlightAware
12:07AM 33.4420 -96.1360 240° Southwest 438 504 14,500 -2,280 Descending FlightAware
12:08AM 33.4050 -96.2110 239° Southwest 425 489 13,200 -2,160 Descending FlightAware
12:09AM 33.3580 -96.3080 240° Southwest 411 473 11,500 -1,560 Descending FlightAware
12:09AM 33.3210 -96.3920 242° Southwest 408 470 10,900 -480 Descending FlightAware
12:10AM 33.2860 -96.4730 243° Southwest 397 457 10,900 -240 Level FlightAware
12:11AM 33.2460 -96.5640 242° Southwest 339 390 10,600 -420 Descending FlightAware
12:11AM 33.2210 -96.6200 242° Southwest 309 356 10,300 -840 Descending FlightAware
12:12AM 33.2010 -96.6650 242° Southwest 287 330 9,700 -1,380 Descending FlightAware
12:12AM 33.1850 -96.7040 244° Southwest 282 325 9,000 -1,740 Descending FlightAware
12:13AM 33.1680 -96.7420 242° Southwest 279 321 8,100 -1,860 Descending FlightAware
12:13AM 33.1530 -96.7760 242° Southwest 276 318 7,400 -1,800 Descending FlightAware
12:14AM 33.1380 -96.8110 243° Southwest 270 311 6,600 -1,860 Descending FlightAware
12:14AM 33.1200 -96.8500 241° Southwest 262 302 5,700 -1,140 Descending FlightAware
12:16AM 33.0720 -96.9600 243° Southwest 196 226 4,300 -1,020 Descending FlightAware
12:16AM 33.0610 -96.9840 241° Southwest 169 194 3,700 -1,500 Descending FlightAware
12:17AM 33.0520 -97.0050 243° Southwest 161 185 3,000 -900 Descending FlightAware
12:17AM 33.0390 -97.0260 234° Southwest 158 182 2,900 -300 Descending FlightAware
12:17AM 33.0300 -97.0280 191° South 157 181 2,800 -660 Descending FlightAware
12:18AM 33.0200 -97.0290 185° South 151 174 2,600 -960 Descending FlightAware
12:18AM 33.0000 -97.0290 180° South 144 166 2,100 -1,020 Descending FlightAware
12:19AM 32.9810 -97.0300 183° South 143 165 1,700 -900 Descending FlightAware
12:19AM 32.9630 -97.0300 180° South 146 168 1,300 -720 Descending FlightAware
12:20AM 32.9100 -97.0300 180° South 144 166 500 -360 Descending Fort Worth Center
12:21AM 32.8725 -97.0400 193° South 144 166 500  Level Fort Worth Center